KGFA/GFA METAR and TAF weather

Enter ICAO airport designator
Station Type Date Time Source
KGFA METAR 2020/03/31 05:58 UTC NOAA

KGFA 310558Z AUTO 26011G23KT 10SM -RA OVC050 06/M01 A2979 RMK AO2 RAB39 PRESFR SLP102 T00561011 10110 20043 50007 $


Station Type Date Time Source
KGFA Decoded METAR 2020/03/31 05:58 UTC NOAA

Malmstrom Air Force Base, MT, United States (KGFA) 47-30N 111-11W
Mar 31, 2020 - 01:58 AM EDT / 2020.03.31 0558 UTC
Wind: from the W (260 degrees) at 13 MPH (11 KT) gusting to 26 MPH (23 KT):0
Visibility: 10 mile(s):0
Sky conditions: overcast
Weather: light rain
Temperature: 42.1 F (5.6 C)
Dew Point: 30.0 F (-1.1 C)
Relative Humidity: 61%
Pressure (altimeter): 29.79 in. Hg (1008 hPa)
Pressure tendency: falling rapidly - 0.02 inches (0.7 hPa) higher than three hours ago
ob: KGFA 310558Z AUTO 26011G23KT 10SM -RA OVC050 06/M01 A2979 RMK AO2 RAB39 PRESFR SLP102 T00561011 10110 20043 50007
cycle: 6

Station Type Date Time Source
KGFA TAF 2020/03/31 03:08 UTC NOAA

TAF KGFA 310305Z 3103/0109 20009KT 9999 SCT120 QNH2973INS
TEMPO 3104/3109 4800 -SHRA BKN035 610359
BECMG 3115/3116 24012KT 9999 FEW120 QNH2972INS
TEMPO 3119/0101 22012G18KT 4800 -SHRASN FEW015 BKN030 610309
BECMG 0100/0101 35012KT 3200 -SHSN BKN015 610159 QNH2978INS
TEMPO 0101/0106 35012G18KT 1600 -SN BKN007 620079 TX06/3120Z TNM05/0103Z

Example: see airport list